createdAt,value
2023-08-25T00:03:31.196Z,8.63
2023-08-25T00:13:37.225Z,8.68
2023-08-25T00:23:50.179Z,8.70
2023-08-25T00:33:55.208Z,7.68
2023-08-25T00:43:58.251Z,8.60
2023-08-25T00:54:00.256Z,8.02
2023-08-25T01:04:08.877Z,8.68
2023-08-25T01:14:18.538Z,8.10
2023-08-25T01:24:29.479Z,11.05
2023-08-25T01:34:31.508Z,13.27
2023-08-25T01:44:55.450Z,10.70
2023-08-25T01:55:16.193Z,9.15
2023-08-25T02:05:18.312Z,9.65
2023-08-25T02:15:24.854Z,9.85
2023-08-25T02:25:45.004Z,7.88
2023-08-25T02:35:47.036Z,10.93
2023-08-25T02:45:49.024Z,8.75
2023-08-25T02:55:51.216Z,13.55
2023-08-25T03:05:53.160Z,10.90
2023-08-25T03:15:55.951Z,9.65
2023-08-25T03:26:23.607Z,10.02
2023-08-25T03:36:25.583Z,11.40
2023-08-25T03:46:28.612Z,10.90
2023-08-25T03:56:30.628Z,11.10
2023-08-25T04:06:34.640Z,11.93
2023-08-25T04:16:36.653Z,9.90
2023-08-25T04:26:38.624Z,12.57
2023-08-25T04:36:41.201Z,12.38
2023-08-25T04:46:43.252Z,11.90
2023-08-25T04:56:45.283Z,11.52
2023-08-25T05:07:14.984Z,11.13
2023-08-25T05:17:19.055Z,11.07
2023-08-25T05:27:43.991Z,11.75
2023-08-25T05:37:46.128Z,12.02
2023-08-25T05:47:48.191Z,12.05
2023-08-25T05:57:50.392Z,12.73
2023-08-25T06:07:58.665Z,13.02
2023-08-25T06:18:05.066Z,12.27
2023-08-25T06:28:07.260Z,13.60
2023-08-25T06:38:09.565Z,11.50
2023-08-25T06:48:26.674Z,14.05
2023-08-25T06:58:28.896Z,15.27
2023-08-25T07:08:37.395Z,12.52
2023-08-25T07:18:39.774Z,19.85
2023-08-25T07:28:41.720Z,14.20
2023-08-25T07:39:00.984Z,11.77
2023-08-25T07:49:03.143Z,10.30
2023-08-25T07:59:28.971Z,11.80
2023-08-25T08:09:33.122Z,12.10
2023-08-25T08:19:35.728Z,12.40
2023-08-25T08:29:37.720Z,11.23
2023-08-25T08:39:40.925Z,10.40
2023-08-25T08:49:44.430Z,10.32
2023-08-25T09:00:16.403Z,10.68
2023-08-25T09:10:40.407Z,11.05
2023-08-25T09:20:42.395Z,11.10
2023-08-25T09:30:47.759Z,10.35
2023-08-25T09:40:49.998Z,12.05
2023-08-25T09:50:53.571Z,10.48
2023-08-25T10:00:56.475Z,10.13
2023-08-25T10:11:24.097Z,9.32
2023-08-25T10:21:28.328Z,10.95
2023-08-25T10:31:34.570Z,10.48
2023-08-25T10:41:44.172Z,9.68
2023-08-25T10:51:46.251Z,9.90
2023-08-25T11:01:59.679Z,10.10
2023-08-25T11:12:09.787Z,14.32
2023-08-25T11:22:13.492Z,12.45
2023-08-25T11:32:16.679Z,17.35
2023-08-25T11:42:23.613Z,12.73
2023-08-25T11:52:25.757Z,14.38
2023-08-25T12:02:27.792Z,13.07
2023-08-25T12:12:39.222Z,11.73
2023-08-25T12:23:06.145Z,10.85
2023-08-25T12:33:19.609Z,9.70
2023-08-25T12:43:21.771Z,10.52
2023-08-25T12:53:35.568Z,10.35
2023-08-25T13:03:43.610Z,11.15
2023-08-25T13:13:50.835Z,12.30
2023-08-25T13:24:15.776Z,12.27
2023-08-25T13:34:46.610Z,12.55
2023-08-25T13:45:05.170Z,12.93
2023-08-25T13:55:15.667Z,12.68
2023-08-25T14:05:19.498Z,12.57
2023-08-25T14:15:35.611Z,12.70
2023-08-25T14:25:37.697Z,12.23
2023-08-25T14:35:40.686Z,12.05
2023-08-25T14:45:43.802Z,13.45
2023-08-25T14:55:45.838Z,13.60
2023-08-25T15:05:47.831Z,12.40
2023-08-25T15:15:50.173Z,11.13
2023-08-25T15:25:56.020Z,13.25
2023-08-25T15:36:00.358Z,12.27
2023-08-25T15:46:02.468Z,10.55
2023-08-25T15:56:04.767Z,11.02
2023-08-25T16:06:08.541Z,12.45
2023-08-25T16:16:13.628Z,12.88
2023-08-25T16:26:15.990Z,11.73
2023-08-25T16:36:18.247Z,12.63
2023-08-25T16:46:20.760Z,11.50
2023-08-25T16:56:23.156Z,12.60
2023-08-25T17:06:25.764Z,14.05
2023-08-25T17:16:54.701Z,11.23
2023-08-25T17:26:56.658Z,13.80
2023-08-25T17:36:58.632Z,11.85
2023-08-25T17:47:18.795Z,12.15
2023-08-25T17:57:20.976Z,10.15
2023-08-25T18:07:23.120Z,12.35
2023-08-25T18:17:25.346Z,12.57
2023-08-25T18:27:29.196Z,12.13
2023-08-25T18:37:31.203Z,12.40
2023-08-25T18:47:33.491Z,13.90
2023-08-25T18:57:35.779Z,15.13
2023-08-25T19:07:38.555Z,15.68
2023-08-25T19:17:45.782Z,17.30
2023-08-25T19:27:48.159Z,18.05
2023-08-25T19:38:04.125Z,17.55
2023-08-25T19:48:21.291Z,15.70
2023-08-25T19:58:35.231Z,18.20
2023-08-25T20:08:40.020Z,17.70
2023-08-25T20:18:57.909Z,16.38
2023-08-25T20:29:14.938Z,14.18
2023-08-25T20:39:27.382Z,14.40
2023-08-25T20:49:30.777Z,15.88
2023-08-25T20:59:36.569Z,16.67
2023-08-25T21:09:49.487Z,14.05
2023-08-25T21:29:53.741Z,14.13
2023-08-25T21:39:55.872Z,15.52
2023-08-25T21:50:01.070Z,16.27
2023-08-25T22:00:14.927Z,16.25
2023-08-25T22:10:22.281Z,15.18
2023-08-25T22:20:24.258Z,16.77
2023-08-25T22:30:26.344Z,18.30
2023-08-25T22:40:28.398Z,17.85
2023-08-25T22:50:30.649Z,17.52
2023-08-25T23:00:35.627Z,15.70
2023-08-25T23:10:47.764Z,15.82
2023-08-25T23:21:00.954Z,16.98
2023-08-25T23:31:17.013Z,17.05
2023-08-25T23:41:18.942Z,18.80
2023-08-25T23:51:20.905Z,19.15
